Time;durP1;ratioP1;P1;durP2;ratioP2;P2;SDS_P1;SDS_P2;PMS_P1;PMS_P2;Temp;Humidity;BMP_temperature;BMP_pressure;BME280_temperature;BME280_humidity;BME280_pressure;Samples;Min_cycle;Max_cycle;Signal;HPM_P1;HPM_P2
2022/05/18 00:01:30;;;;;;;2.28;1.37;;;14.20;58.40;;;;;;610431;236;26589;-68
2022/05/18 00:03:58;;;;;;;2.30;1.50;;;14.20;59.60;;;;;;610483;235;26596;-67
2022/05/18 00:06:25;;;;;;;1.87;1.25;;;14.20;57.60;;;;;;610426;235;26595;-68
2022/05/18 00:08:52;;;;;;;1.87;1.52;;;14.20;58.00;;;;;;610317;235;26830;-67
2022/05/18 00:11:19;;;;;;;1.83;1.62;;;14.20;58.40;;;;;;610158;236;26664;-67
2022/05/18 00:13:46;;;;;;;1.50;1.40;;;14.20;56.50;;;;;;610080;235;26902;-68
2022/05/18 00:16:14;;;;;;;2.30;1.70;;;14.10;56.70;;;;;;610191;230;26645;-68
2022/05/18 00:18:41;;;;;;;1.52;1.42;;;14.20;56.50;;;;;;610188;235;26831;-68
2022/05/18 00:21:09;;;;;;;2.17;1.80;;;14.20;57.40;;;;;;610141;236;26901;-67
2022/05/18 00:23:37;;;;;;;3.05;1.67;;;14.20;56.80;;;;;;610100;235;26665;-68
2022/05/18 00:26:03;;;;;;;1.77;1.55;;;14.10;58.10;;;;;;610140;235;27245;-68
2022/05/18 00:28:31;;;;;;;2.28;1.70;;;14.10;56.50;;;;;;609721;236;26586;-68
2022/05/18 00:30:58;;;;;;;2.87;1.62;;;14.10;56.80;;;;;;609839;230;26584;-68
2022/05/18 00:33:25;;;;;;;2.85;1.83;;;14.10;56.30;;;;;;609854;235;26990;-68
2022/05/18 00:35:52;;;;;;;3.25;1.73;;;14.10;56.60;;;;;;609879;236;26632;-68
2022/05/18 00:38:20;;;;;;;2.40;1.92;;;14.00;55.70;;;;;;609940;235;27261;-69
2022/05/18 00:40:47;;;;;;;2.15;1.75;;;14.00;56.60;;;;;;609842;235;26572;-68
2022/05/18 00:43:18;;;;;;;4.82;1.80;;;13.90;57.00;;;;;;609865;235;26887;-68
2022/05/18 00:45:45;;;;;;;3.90;1.70;;;13.90;56.00;;;;;;609773;236;26600;-68
2022/05/18 00:48:12;;;;;;;3.00;1.60;;;13.90;56.20;;;;;;609894;235;27293;-68
2022/05/18 00:50:40;;;;;;;2.37;1.95;;;13.80;57.60;;;;;;609825;236;26619;-68
2022/05/18 00:53:07;;;;;;;3.87;1.90;;;13.80;58.20;;;;;;609769;235;26626;-68
2022/05/18 00:55:35;;;;;;;3.12;1.83;;;13.80;57.80;;;;;;609222;236;26583;-68
2022/05/18 00:58:03;;;;;;;2.80;1.90;;;13.70;56.60;;;;;;609557;236;26831;-68
2022/05/18 01:00:30;;;;;;;2.40;1.80;;;13.70;57.60;;;;;;610012;236;26809;-68
2022/05/18 01:02:58;;;;;;;2.08;1.83;;;13.70;56.70;;;;;;611352;233;26593;-69
2022/05/18 01:05:26;;;;;;;1.80;1.70;;;13.60;55.00;;;;;;611197;235;26565;-68
2022/05/18 01:07:53;;;;;;;5.18;1.92;;;13.60;55.20;;;;;;610759;235;26860;-69
2022/05/18 01:10:20;;;;;;;2.00;1.85;;;13.60;55.50;;;;;;610674;235;26587;-69
2022/05/18 01:12:47;;;;;;;3.25;1.92;;;13.60;54.80;;;;;;610386;235;26956;-69
2022/05/18 01:15:15;;;;;;;3.17;2.08;;;13.50;55.10;;;;;;610456;236;26589;-69
2022/05/18 01:17:42;;;;;;;3.40;1.95;;;13.50;54.80;;;;;;610393;236;26788;-69
2022/05/18 01:20:10;;;;;;;2.67;1.70;;;13.50;55.60;;;;;;610274;236;26576;-69
2022/05/18 01:22:55;;;;;;;2.05;1.85;;;13.50;54.40;;;;;;610050;235;26701;-69
2022/05/18 01:25:30;;;;;;;2.03;1.60;;;13.50;54.90;;;;;;608633;236;26626;-68
2022/05/18 01:27:58;;;;;;;2.45;1.85;;;13.50;54.60;;;;;;609531;236;26677;-69
2022/05/18 01:30:26;;;;;;;2.05;1.50;;;13.40;55.80;;;;;;610194;235;27387;-69
2022/05/18 01:32:54;;;;;;;3.30;1.70;;;13.30;53.70;;;;;;610068;236;26647;-68
2022/05/18 01:35:23;;;;;;;2.47;1.62;;;13.30;53.90;;;;;;610114;236;26651;-69
2022/05/18 01:37:50;;;;;;;1.85;1.48;;;13.30;53.80;;;;;;610105;236;26851;-69
2022/05/18 01:40:20;;;;;;;1.62;1.52;;;13.30;52.90;;;;;;609948;236;26626;-68
2022/05/18 01:42:47;;;;;;;3.00;1.65;;;13.30;53.70;;;;;;609564;236;26625;-69
2022/05/18 01:45:14;;;;;;;4.35;1.52;;;13.40;53.30;;;;;;609767;236;26824;-68
2022/05/18 01:47:42;;;;;;;2.03;1.50;;;13.50;52.60;;;;;;609929;236;26581;-69
2022/05/18 01:50:09;;;;;;;1.65;1.50;;;13.50;52.70;;;;;;609886;235;26820;-68
2022/05/18 01:52:36;;;;;;;1.40;1.30;;;13.50;51.30;;;;;;609601;235;26869;-69
2022/05/18 01:55:04;;;;;;;1.48;1.37;;;13.50;51.40;;;;;;609877;235;26603;-69
2022/05/18 01:57:31;;;;;;;3.65;1.80;;;13.40;52.90;;;;;;609839;236;26553;-69
2022/05/18 01:59:59;;;;;;;1.55;1.45;;;13.30;52.90;;;;;;609770;236;26844;-69
2022/05/18 02:02:26;;;;;;;1.50;1.30;;;13.30;51.70;;;;;;609850;236;26580;-69
2022/05/18 02:04:53;;;;;;;1.40;1.30;;;13.30;49.90;;;;;;609862;236;26827;-69
2022/05/18 02:07:21;;;;;;;2.03;1.20;;;13.20;49.90;;;;;;609844;235;26643;-69
2022/05/18 02:09:49;;;;;;;2.47;1.27;;;13.20;49.90;;;;;;609904;236;26565;-69
2022/05/18 02:12:17;;;;;;;3.12;1.33;;;13.20;51.30;;;;;;609789;236;26572;-69
2022/05/18 02:14:45;;;;;;;1.15;1.12;;;13.20;51.40;;;;;;611011;233;26625;-70
2022/05/18 02:17:12;;;;;;;2.20;1.80;;;13.10;49.10;;;;;;611069;235;26817;-69
2022/05/18 02:19:39;;;;;;;1.85;1.23;;;13.10;50.60;;;;;;610814;235;26583;-69
2022/05/18 02:22:07;;;;;;;1.40;1.30;;;13.00;50.10;;;;;;610646;235;27216;-69
2022/05/18 02:24:35;;;;;;;1.30;1.15;;;13.00;50.40;;;;;;610487;236;26862;-69
2022/05/18 02:27:03;;;;;;;2.22;1.33;;;12.90;50.40;;;;;;610498;236;26822;-69
2022/05/18 02:29:30;;;;;;;2.92;1.62;;;12.90;49.90;;;;;;610499;236;26577;-69
2022/05/18 02:31:57;;;;;;;1.77;1.50;;;12.90;49.90;;;;;;610286;235;26831;-69
2022/05/18 02:34:24;;;;;;;2.22;1.37;;;12.90;50.30;;;;;;610203;235;26641;-69
2022/05/18 02:36:52;;;;;;;1.30;1.20;;;12.80;48.20;;;;;;610140;235;26852;-69
2022/05/18 02:39:21;;;;;;;2.08;1.40;;;12.80;50.10;;;;;;610192;235;26637;-69
2022/05/18 02:41:47;;;;;;;1.87;1.30;;;12.70;49.20;;;;;;610074;236;27275;-69
2022/05/18 02:44:14;;;;;;;2.05;1.40;;;12.70;48.50;;;;;;610174;235;27428;-69
2022/05/18 02:46:42;;;;;;;3.17;1.05;;;12.70;49.70;;;;;;610181;235;26621;-69
2022/05/18 02:49:09;;;;;;;1.42;1.27;;;12.70;50.70;;;;;;610150;236;27338;-69
2022/05/18 02:51:36;;;;;;;1.90;1.30;;;12.60;47.40;;;;;;609910;235;26584;-69
2022/05/18 02:56:05;;;;;;;2.90;1.12;;;12.60;48.40;;;;;;609945;236;26933;-69
2022/05/18 02:56:32;;;;;;;2.22;1.20;;;12.60;48.40;;;;;;608774;236;26835;-69
2022/05/18 02:58:58;;;;;;;2.12;1.27;;;12.50;49.30;;;;;;609830;231;26588;-69
2022/05/18 03:01:26;;;;;;;2.75;1.20;;;12.50;49.80;;;;;;609868;236;26605;-69
2022/05/18 03:03:54;;;;;;;1.58;1.15;;;12.50;49.60;;;;;;609822;235;26647;-69
2022/05/18 03:06:22;;;;;;;2.10;1.17;;;12.40;48.00;;;;;;609896;235;26654;-69
2022/05/18 03:08:50;;;;;;;1.95;1.40;;;12.40;50.50;;;;;;609852;236;26617;-68
2022/05/18 03:11:19;;;;;;;4.32;1.20;;;12.30;50.30;;;;;;609862;230;26597;-69
2022/05/18 03:13:46;;;;;;;1.00;1.00;;;12.30;49.00;;;;;;609876;235;26604;-69
2022/05/18 03:16:14;;;;;;;0.93;0.90;;;12.30;48.90;;;;;;609913;236;26589;-69
2022/05/18 03:18:42;;;;;;;1.17;1.08;;;12.30;48.50;;;;;;609860;236;26577;-69
2022/05/18 03:23:42;;;;;;;2.20;1.33;;;12.30;49.60;;;;;;609844;236;26616;-69
2022/05/18 03:26:09;;;;;;;1.10;1.00;;;12.30;48.10;;;;;;611303;233;26840;-69
2022/05/18 03:28:36;;;;;;;1.83;1.10;;;12.30;48.80;;;;;;611233;235;26559;-69
2022/05/18 03:31:04;;;;;;;1.75;1.12;;;12.20;48.00;;;;;;610968;235;26611;-69
2022/05/18 03:33:32;;;;;;;2.05;1.08;;;12.20;48.50;;;;;;611083;235;26635;-69
2022/05/18 03:36:00;;;;;;;1.85;1.40;;;12.20;48.60;;;;;;610856;235;26555;-69
2022/05/18 03:38:28;;;;;;;1.08;1.08;;;12.20;48.10;;;;;;610704;236;26600;-69
2022/05/18 03:40:55;;;;;;;1.98;1.08;;;12.20;48.30;;;;;;610835;235;26557;-69
2022/05/18 03:43:22;;;;;;;1.73;1.20;;;12.10;48.80;;;;;;610392;235;26607;-69
2022/05/18 03:45:49;;;;;;;3.03;1.30;;;12.10;50.20;;;;;;610177;235;26834;-69
2022/05/18 03:48:16;;;;;;;1.08;1.08;;;12.10;48.10;;;;;;610119;236;26617;-69
2022/05/18 03:50:44;;;;;;;1.90;1.20;;;12.20;47.90;;;;;;610192;236;26827;-69
2022/05/18 03:53:11;;;;;;;1.70;1.15;;;12.20;49.30;;;;;;610013;236;26664;-68
2022/05/18 03:55:38;;;;;;;1.45;1.17;;;12.20;46.80;;;;;;610220;235;26868;-69
2022/05/18 03:58:05;;;;;;;1.02;1.00;;;12.30;48.90;;;;;;610108;236;26635;-69
2022/05/18 04:00:33;;;;;;;1.80;1.00;;;12.30;47.10;;;;;;610181;236;26628;-69
2022/05/18 04:03:00;;;;;;;1.52;0.93;;;12.30;49.60;;;;;;609797;236;26850;-68
2022/05/18 04:05:27;;;;;;;1.45;1.20;;;12.40;47.30;;;;;;609892;235;26584;-68
2022/05/18 04:07:54;;;;;;;1.10;1.10;;;12.40;47.80;;;;;;609794;235;26884;-69
2022/05/18 04:10:21;;;;;;;2.30;1.20;;;12.50;47.60;;;;;;609890;236;26581;-69
2022/05/18 04:12:48;;;;;;;0.98;0.93;;;12.50;47.50;;;;;;609852;235;26827;-69
2022/05/18 04:15:16;;;;;;;0.80;0.80;;;12.60;46.90;;;;;;609921;235;26584;-69
2022/05/18 04:17:45;;;;;;;0.90;0.90;;;12.70;46.50;;;;;;609964;235;26579;-68
2022/05/18 04:20:13;;;;;;;1.35;1.25;;;12.80;48.20;;;;;;609982;235;26634;-69
2022/05/18 04:22:40;;;;;;;0.85;0.85;;;12.70;47.90;;;;;;609887;235;26609;-68
2022/05/18 04:25:09;;;;;;;1.87;1.20;;;13.00;45.90;;;;;;609934;235;26596;-69
2022/05/18 04:27:36;;;;;;;1.95;1.33;;;12.90;45.90;;;;;;609832;236;26597;-69
2022/05/18 04:30:05;;;;;;;2.72;1.20;;;13.00;46.40;;;;;;609850;235;26561;-68
2022/05/18 04:32:31;;;;;;;2.55;1.30;;;13.00;46.20;;;;;;609768;236;26571;-69
2022/05/18 04:34:59;;;;;;;1.23;1.02;;;13.00;46.70;;;;;;609863;235;26872;-68
2022/05/18 04:37:26;;;;;;;1.05;0.95;;;13.00;47.10;;;;;;610890;233;26632;-68
2022/05/18 04:39:53;;;;;;;1.15;0.85;;;13.00;46.90;;;;;;611206;234;26833;-68
2022/05/18 04:42:22;;;;;;;1.00;0.98;;;13.10;45.60;;;;;;610799;235;26616;-69
2022/05/18 04:44:48;;;;;;;1.10;1.10;;;13.10;46.90;;;;;;610648;235;26834;-69
2022/05/18 04:47:15;;;;;;;1.37;1.20;;;13.20;46.80;;;;;;610528;235;26580;-69
2022/05/18 04:49:42;;;;;;;1.17;1.00;;;13.20;45.40;;;;;;610485;232;26634;-69
2022/05/18 04:52:10;;;;;;;1.10;1.00;;;13.40;47.20;;;;;;610412;236;26580;-69
2022/05/18 04:54:38;;;;;;;1.35;1.25;;;13.50;45.60;;;;;;610369;235;26607;-69
2022/05/18 04:57:06;;;;;;;1.08;1.08;;;13.60;46.00;;;;;;610160;235;26630;-69
2022/05/18 04:59:33;;;;;;;2.42;1.33;;;13.50;45.90;;;;;;610131;235;26619;-68
2022/05/18 05:02:02;;;;;;;1.80;1.30;;;13.70;46.50;;;;;;610256;236;26635;-67
2022/05/18 05:04:28;;;;;;;1.10;1.00;;;13.70;46.60;;;;;;610143;236;26887;-67
2022/05/18 05:06:55;;;;;;;1.45;1.00;;;13.70;45.60;;;;;;610168;235;26623;-66
2022/05/18 05:09:24;;;;;;;1.95;1.17;;;13.70;48.20;;;;;;610183;236;26968;-66
2022/05/18 05:11:50;;;;;;;1.20;1.20;;;13.80;45.80;;;;;;610127;236;26602;-66
2022/05/18 05:14:17;;;;;;;1.27;1.10;;;13.80;46.30;;;;;;609863;236;26829;-66
2022/05/18 05:16:44;;;;;;;2.78;1.10;;;13.80;48.30;;;;;;609907;235;26584;-65
2022/05/18 05:19:12;;;;;;;1.08;1.00;;;13.90;46.60;;;;;;609915;235;26859;-65
2022/05/18 05:21:42;;;;;;;2.45;1.30;;;14.00;46.10;;;;;;609912;235;26557;-65
2022/05/18 05:24:07;;;;;;;1.75;1.20;;;14.00;44.90;;;;;;609836;235;26588;-65
2022/05/18 05:26:35;;;;;;;1.12;1.12;;;14.00;44.80;;;;;;609971;236;26628;-67
2022/05/18 05:29:02;;;;;;;1.20;1.10;;;14.10;45.60;;;;;;609899;236;26822;-66
2022/05/18 05:31:29;;;;;;;1.73;1.20;;;14.10;45.60;;;;;;609775;235;26593;-65
2022/05/18 05:33:56;;;;;;;1.90;1.00;;;14.30;45.50;;;;;;609778;235;26858;-66
2022/05/18 05:36:23;;;;;;;0.80;0.80;;;14.30;45.80;;;;;;609784;236;26581;-66
2022/05/18 05:38:51;;;;;;;1.23;1.00;;;14.30;44.90;;;;;;609823;235;26842;-67
2022/05/18 05:41:19;;;;;;;0.93;0.90;;;14.30;45.20;;;;;;609754;236;26601;-66
2022/05/18 05:43:46;;;;;;;0.90;0.90;;;14.30;44.00;;;;;;605808;235;26909;-64
2022/05/18 05:46:13;;;;;;;0.93;0.90;;;14.30;45.70;;;;;;604637;237;26587;-67
2022/05/18 05:48:41;;;;;;;1.42;1.00;;;14.30;45.00;;;;;;605314;236;27184;-67
2022/05/18 05:51:12;;;;;;;0.95;0.80;;;14.20;45.00;;;;;;605950;236;26600;-67
2022/05/18 05:53:36;;;;;;;0.90;0.90;;;14.20;46.30;;;;;;605537;236;26596;-67
2022/05/18 05:56:04;;;;;;;0.98;0.93;;;14.20;45.60;;;;;;604870;237;26590;-67
2022/05/18 05:58:33;;;;;;;0.95;0.90;;;14.20;45.60;;;;;;602187;237;26645;-67
2022/05/18 06:00:59;;;;;;;2.15;1.10;;;14.30;46.50;;;;;;603789;238;26998;-67
2022/05/18 06:03:26;;;;;;;1.50;1.12;;;14.30;44.80;;;;;;602748;238;26898;-67
2022/05/18 06:05:56;;;;;;;3.03;1.40;;;14.40;47.20;;;;;;610096;236;26601;-67
2022/05/18 06:08:21;;;;;;;1.73;1.30;;;14.50;46.30;;;;;;611325;235;26865;-67
2022/05/18 06:10:48;;;;;;;1.10;1.00;;;14.50;46.00;;;;;;609042;235;26615;-67
2022/05/18 06:13:15;;;;;;;2.05;1.05;;;14.50;45.70;;;;;;604593;235;26840;-68
2022/05/18 06:15:43;;;;;;;0.98;0.88;;;14.70;45.20;;;;;;605854;234;26552;-68
2022/05/18 06:18:10;;;;;;;0.70;0.70;;;14.70;46.00;;;;;;604975;234;26541;-68
2022/05/18 06:20:37;;;;;;;0.88;0.88;;;14.80;45.40;;;;;;603777;238;26554;-67
2022/05/18 06:23:04;;;;;;;1.05;0.88;;;15.00;47.10;;;;;;607710;236;26891;-68
2022/05/18 06:25:31;;;;;;;1.10;1.00;;;15.10;46.20;;;;;;602424;236;26621;-66
2022/05/18 06:27:59;;;;;;;1.20;1.10;;;15.20;47.20;;;;;;603758;237;26599;-67
2022/05/18 06:30:27;;;;;;;1.10;1.00;;;15.20;46.70;;;;;;605646;236;26649;-68
2022/05/18 06:32:55;;;;;;;2.42;1.17;;;15.20;46.80;;;;;;603750;235;26820;-67
2022/05/18 06:35:22;;;;;;;1.00;1.00;;;15.30;46.70;;;;;;602094;238;26650;-66
2022/05/18 06:37:50;;;;;;;2.20;1.17;;;15.40;46.60;;;;;;608896;236;26840;-67
2022/05/18 06:40:18;;;;;;;0.90;0.90;;;15.70;45.60;;;;;;607470;235;26583;-66
2022/05/18 06:42:46;;;;;;;1.08;1.08;;;15.70;46.70;;;;;;606146;235;26670;-67
2022/05/18 06:45:14;;;;;;;1.52;1.40;;;15.90;46.20;;;;;;601475;237;26685;-66
2022/05/18 06:47:43;;;;;;;1.15;1.05;;;16.10;45.80;;;;;;602286;236;26640;-66
2022/05/18 06:50:10;;;;;;;1.00;1.00;;;16.20;46.90;;;;;;601382;238;26682;-67
2022/05/18 06:52:38;;;;;;;1.77;1.02;;;16.40;45.40;;;;;;602975;237;26658;-65
2022/05/18 06:55:06;;;;;;;1.00;0.90;;;16.50;45.60;;;;;;604543;238;27296;-66
2022/05/18 06:57:33;;;;;;;1.65;1.27;;;16.40;45.30;;;;;;604455;238;26585;-68
2022/05/18 07:00:04;;;;;;;1.17;1.08;;;16.50;46.80;;;;;;606513;233;26824;-66
2022/05/18 07:02:28;;;;;;;1.20;1.10;;;16.60;45.80;;;;;;607386;235;26685;-66
2022/05/18 07:04:55;;;;;;;1.20;1.10;;;16.70;46.90;;;;;;604559;237;26831;-66
2022/05/18 07:07:22;;;;;;;1.27;1.17;;;16.70;46.00;;;;;;605005;237;26585;-67
2022/05/18 07:09:49;;;;;;;1.20;1.10;;;16.80;46.30;;;;;;602251;238;26819;-68
2022/05/18 07:12:16;;;;;;;1.20;1.10;;;16.90;46.20;;;;;;605100;235;26603;-66
2022/05/18 07:14:44;;;;;;;1.27;1.25;;;17.00;46.30;;;;;;607481;236;26634;-66
2022/05/18 07:17:12;;;;;;;1.40;1.30;;;17.10;48.50;;;;;;602858;237;26641;-65
2022/05/18 07:19:40;;;;;;;1.30;1.20;;;17.10;48.60;;;;;;604695;238;26566;-66
2022/05/18 07:22:07;;;;;;;1.08;1.08;;;17.20;46.20;;;;;;606402;236;26640;-65
2022/05/18 07:24:35;;;;;;;1.40;1.30;;;17.30;46.30;;;;;;605996;236;26625;-65
2022/05/18 07:27:04;;;;;;;1.15;1.15;;;17.30;46.30;;;;;;601905;238;26582;-67
2022/05/18 07:29:31;;;;;;;1.40;1.30;;;17.50;47.10;;;;;;601918;232;26817;-66
2022/05/18 07:34:32;;;;;;;1.50;1.40;;;17.60;46.30;;;;;;601807;238;26583;-67
2022/05/18 07:37:00;;;;;;;1.15;1.15;;;17.70;47.00;;;;;;603644;238;26570;-67
2022/05/18 07:39:28;;;;;;;1.87;1.20;;;17.90;47.20;;;;;;601917;236;26697;-66
2022/05/18 07:41:55;;;;;;;1.20;1.10;;;17.80;47.10;;;;;;602190;237;26590;-66
2022/05/18 07:44:23;;;;;;;1.37;1.27;;;17.90;48.00;;;;;;604607;237;26609;-67
2022/05/18 07:46:51;;;;;;;1.30;1.20;;;18.10;47.00;;;;;;602918;236;26987;-66
2022/05/18 07:49:18;;;;;;;1.17;1.08;;;18.10;47.10;;;;;;592734;240;26862;-72
2022/05/18 07:51:45;;;;;;;1.58;1.40;;;18.20;46.40;;;;;;601621;235;26634;-68
2022/05/18 07:54:13;;;;;;;1.55;1.40;;;18.30;46.50;;;;;;601526;239;26858;-68
2022/05/18 07:56:40;;;;;;;1.40;1.40;;;18.30;46.50;;;;;;601550;237;26847;-65
2022/05/18 07:59:07;;;;;;;1.33;1.23;;;18.30;47.10;;;;;;603716;238;26582;-66
2022/05/18 08:01:36;;;;;;;1.50;1.10;;;18.40;46.00;;;;;;604193;238;26838;-66
2022/05/18 08:04:02;;;;;;;1.35;1.33;;;18.50;47.90;;;;;;603773;236;26851;-67
2022/05/18 08:06:30;;;;;;;1.33;1.23;;;18.60;47.30;;;;;;609812;235;26585;-67
2022/05/18 08:08:57;;;;;;;1.20;1.20;;;18.60;46.40;;;;;;605744;235;26647;-68
2022/05/18 08:16:31;;;;;;;1.30;1.30;;;18.90;46.40;;;;;;610287;233;26547;-67
2022/05/18 08:18:59;;;;;;;2.78;1.37;;;19.00;47.50;;;;;;604141;235;26637;-66
2022/05/18 08:21:27;;;;;;;1.62;1.52;;;19.10;47.20;;;;;;608263;235;26648;-68
2022/05/18 08:23:55;;;;;;;1.35;1.20;;;19.10;47.20;;;;;;609264;235;26666;-66
2022/05/18 08:26:22;;;;;;;2.42;1.40;;;19.10;47.10;;;;;;602832;235;26571;-68
2022/05/18 08:28:49;;;;;;;1.48;1.37;;;19.20;47.40;;;;;;602099;232;26581;-65
2022/05/18 08:31:17;;;;;;;1.20;1.10;;;19.20;47.00;;;;;;602333;236;26952;-64
2022/05/18 08:33:45;;;;;;;1.33;1.23;;;19.20;47.10;;;;;;603368;235;26612;-67
2022/05/18 08:36:14;;;;;;;1.40;1.30;;;19.30;47.90;;;;;;603897;238;26604;-66
2022/05/18 08:38:41;;;;;;;1.73;1.62;;;19.20;47.40;;;;;;604876;237;27229;-65
2022/05/18 08:41:12;;;;;;;2.10;1.90;;;19.30;47.90;;;;;;604783;236;26583;-67
2022/05/18 08:43:39;;;;;;;1.85;1.70;;;19.30;47.80;;;;;;604061;236;26617;-67
2022/05/18 08:46:12;;;;;;;1.58;1.48;;;19.30;48.60;;;;;;601754;237;26832;-67
2022/05/18 08:48:41;;;;;;;2.53;1.62;;;19.40;48.00;;;;;;601485;236;26604;-68
2022/05/18 08:51:13;;;;;;;1.50;1.40;;;19.60;47.80;;;;;;605378;235;26570;-66
2022/05/18 08:53:46;;;;;;;1.58;1.48;;;19.50;47.80;;;;;;603087;238;26605;-66
2022/05/18 08:56:15;;;;;;;1.23;1.20;;;19.60;48.00;;;;;;605216;236;26845;-66
2022/05/18 08:58:42;;;;;;;1.30;1.25;;;19.60;48.90;;;;;;601595;235;26858;-66
2022/05/18 09:01:11;;;;;;;4.28;1.45;;;19.60;49.10;;;;;;601761;235;26640;-67
2022/05/18 09:03:39;;;;;;;1.35;1.25;;;19.70;48.80;;;;;;611456;235;26645;-66
2022/05/18 09:06:08;;;;;;;2.25;1.58;;;19.70;49.10;;;;;;605388;236;26627;-65
2022/05/18 09:08:35;;;;;;;1.60;1.50;;;19.80;48.00;;;;;;602317;236;26642;-66
2022/05/18 09:11:03;;;;;;;2.53;1.80;;;19.90;48.00;;;;;;604035;237;26565;-66
2022/05/18 09:13:30;;;;;;;1.35;1.27;;;19.80;48.00;;;;;;603723;236;26850;-68
2022/05/18 09:16:02;;;;;;;1.30;1.20;;;19.90;47.90;;;;;;610632;235;26616;-67
2022/05/18 09:18:35;;;;;;;1.40;1.30;;;20.00;47.80;;;;;;606182;236;27293;-67
2022/05/18 09:21:07;;;;;;;1.45;1.35;;;19.90;48.40;;;;;;605051;236;27273;-67
2022/05/18 09:23:35;;;;;;;1.55;1.45;;;19.90;48.50;;;;;;610213;233;26604;-67
2022/05/18 09:26:11;;;;;;;1.20;1.20;;;20.00;49.50;;;;;;608407;235;26582;-67
2022/05/18 09:28:52;;;;;;;1.42;1.33;;;20.00;49.00;;;;;;607757;235;26849;-67
2022/05/18 09:31:25;;;;;;;1.70;1.60;;;20.10;49.00;;;;;;603730;235;26850;-66
2022/05/18 09:33:57;;;;;;;1.50;1.40;;;20.20;49.10;;;;;;602328;236;26597;-62
2022/05/18 09:36:41;;;;;;;3.80;2.33;;;20.20;49.60;;;;;;601344;239;26919;-61
2022/05/18 09:39:09;;;;;;;1.67;1.58;;;20.40;49.30;;;;;;602723;236;26636;-62
2022/05/18 09:41:39;;;;;;;7.62;2.53;;;20.50;49.70;;;;;;604836;235;26614;-64
2022/05/18 09:44:25;;;;;;;1.62;1.52;;;20.40;49.70;;;;;;604710;238;26590;-63
2022/05/18 09:46:52;;;;;;;6.30;2.80;;;20.40;48.90;;;;;;604379;238;26554;-62
2022/05/18 09:49:23;;;;;;;1.62;1.55;;;20.60;49.90;;;;;;605295;235;26573;-62
2022/05/18 09:51:50;;;;;;;1.80;1.70;;;20.50;49.90;;;;;;604306;238;26805;-62
2022/05/18 09:54:17;;;;;;;1.75;1.65;;;20.60;49.60;;;;;;605043;234;26594;-62
2022/05/18 09:56:46;;;;;;;2.33;1.70;;;20.60;50.00;;;;;;604925;237;26816;-62
2022/05/18 09:59:14;;;;;;;1.45;1.40;;;20.60;50.20;;;;;;604105;235;26798;-63
2022/05/18 10:09:20;;;;;;;3.00;2.00;;;20.70;50.80;;;;;;603687;236;27103;-63
2022/05/18 10:11:47;;;;;;;2.05;1.95;;;20.80;51.20;;;;;;601471;238;26597;-62
2022/05/18 10:14:14;;;;;;;2.45;1.80;;;20.90;51.80;;;;;;601534;237;26676;-62
2022/05/18 10:16:42;;;;;;;1.90;1.80;;;21.00;52.00;;;;;;601430;237;26703;-61
2022/05/18 10:19:27;;;;;;;4.50;2.08;;;21.10;51.40;;;;;;601424;235;26629;-60
2022/05/18 10:21:56;;;;;;;3.83;2.80;;;21.10;51.50;;;;;;603752;233;26593;-61
2022/05/18 10:24:24;;;;;;;2.92;2.00;;;21.10;51.10;;;;;;604171;238;26611;-62
2022/05/18 10:27:05;;;;;;;2.00;1.90;;;21.20;50.80;;;;;;601671;235;26888;-62
2022/05/18 10:29:30;;;;;;;2.15;1.95;;;21.20;50.80;;;;;;601242;239;26909;-61
2022/05/18 10:32:01;;;;;;;2.25;2.05;;;21.30;51.20;;;;;;602416;232;26588;-61
2022/05/18 10:34:29;;;;;;;1.80;1.70;;;21.30;51.50;;;;;;602355;234;26657;-61
2022/05/18 10:36:56;;;;;;;1.90;1.77;;;21.40;51.50;;;;;;604827;232;26911;-62
2022/05/18 10:39:30;;;;;;;2.00;1.90;;;21.60;51.80;;;;;;607906;232;26641;-60
2022/05/18 10:41:58;;;;;;;3.08;2.33;;;21.60;51.10;;;;;;610915;235;26662;-60
2022/05/18 10:44:26;;;;;;;2.42;2.00;;;21.60;51.10;;;;;;610591;235;26608;-61
2022/05/18 10:46:53;;;;;;;83.62;19.48;;;21.70;51.50;;;;;;610303;236;26612;-61
2022/05/18 10:49:23;;;;;;;235.50;32.67;;;21.70;52.10;;;;;;610452;231;26589;-61
2022/05/18 10:51:50;;;;;;;19.42;6.20;;;21.90;52.30;;;;;;605563;236;26582;-61
2022/05/18 10:54:24;;;;;;;5.30;2.75;;;22.00;52.10;;;;;;601727;237;26609;-62
2022/05/18 10:56:51;;;;;;;4.10;2.62;;;22.00;52.10;;;;;;608346;236;26636;-61
2022/05/18 10:59:30;;;;;;;2.97;2.20;;;22.10;52.00;;;;;;610048;235;26879;-61
2022/05/18 11:02:18;;;;;;;1.83;1.73;;;22.20;51.70;;;;;;610071;235;26853;-62
2022/05/18 11:04:50;;;;;;;4.72;3.33;;;22.30;52.00;;;;;;606942;236;26840;-63
2022/05/18 11:07:15;;;;;;;3.03;2.50;;;22.40;51.90;;;;;;610326;236;26603;-63
2022/05/18 11:09:42;;;;;;;5.00;2.62;;;22.50;52.40;;;;;;610530;236;26601;-62
2022/05/18 11:12:21;;;;;;;1.92;1.83;;;22.50;51.80;;;;;;610251;235;26554;-62
2022/05/18 11:15:06;;;;;;;3.35;2.90;;;22.60;51.60;;;;;;609635;236;26594;-63
2022/05/18 11:17:39;;;;;;;2.33;2.22;;;22.80;51.10;;;;;;602595;236;26636;-63
2022/05/18 11:20:14;;;;;;;2.25;2.15;;;22.80;51.10;;;;;;609199;236;26783;-62
2022/05/18 11:22:52;;;;;;;2.30;2.20;;;23.10;48.80;;;;;;609337;236;26846;-63
2022/05/18 11:25:27;;;;;;;4.03;2.60;;;23.00;48.70;;;;;;609911;236;26605;-62
2022/05/18 11:27:57;;;;;;;2.22;2.12;;;23.20;47.70;;;;;;609178;236;26576;-63
2022/05/18 11:30:26;;;;;;;2.17;2.08;;;23.30;48.10;;;;;;609462;236;26601;-63
2022/05/18 11:33:04;;;;;;;2.33;2.22;;;23.40;47.70;;;;;;607795;236;26623;-64
2022/05/18 11:35:34;;;;;;;2.40;2.20;;;23.40;48.50;;;;;;609182;235;26585;-63
2022/05/18 11:38:32;;;;;;;2.65;2.55;;;23.40;48.20;;;;;;604100;235;26628;-64
2022/05/18 11:41:05;;;;;;;2.80;2.60;;;23.40;48.10;;;;;;607457;234;26609;-65
2022/05/18 11:43:35;;;;;;;2.53;2.33;;;23.50;47.10;;;;;;603660;238;26609;-66
2022/05/18 11:46:19;;;;;;;2.17;2.08;;;23.50;47.80;;;;;;604035;235;27188;-68
2022/05/18 11:48:50;;;;;;;3.10;2.65;;;23.50;48.50;;;;;;608326;234;26619;-71
2022/05/18 11:51:24;;;;;;;2.75;2.53;;;23.60;48.70;;;;;;610301;235;26671;-65
2022/05/18 11:54:13;;;;;;;1.98;1.87;;;23.80;49.20;;;;;;608426;234;26605;-65
2022/05/18 11:56:45;;;;;;;2.40;2.30;;;23.80;49.20;;;;;;597336;237;26632;-65
2022/05/18 11:59:54;;;;;;;2.12;2.03;;;24.00;48.60;;;;;;604871;236;26606;-72
2022/05/18 12:02:38;;;;;;;2.60;2.40;;;24.10;48.90;;;;;;603411;235;26618;-67
2022/05/18 12:05:26;;;;;;;2.00;1.90;;;24.00;48.90;;;;;;596939;235;26860;-66
2022/05/18 12:07:59;;;;;;;2.30;2.12;;;24.10;48.30;;;;;;603475;235;26595;-66
2022/05/18 12:10:29;;;;;;;2.50;2.30;;;24.10;48.50;;;;;;601454;236;26829;-66
2022/05/18 12:13:02;;;;;;;2.20;2.10;;;24.40;48.60;;;;;;602501;238;26653;-66
2022/05/18 12:15:39;;;;;;;2.25;2.15;;;24.40;48.60;;;;;;601896;239;26849;-66
2022/05/18 12:18:07;;;;;;;2.60;2.30;;;24.80;48.80;;;;;;601896;239;26558;-66
2022/05/18 12:20:56;;;;;;;2.08;1.98;;;24.70;48.70;;;;;;609707;235;26557;-65
2022/05/18 12:23:25;;;;;;;2.30;2.10;;;25.10;47.80;;;;;;607263;235;26872;-65
2022/05/18 12:25:51;;;;;;;2.37;2.10;;;25.40;47.00;;;;;;603642;238;26624;-66
2022/05/18 12:28:18;;;;;;;2.28;2.17;;;25.70;46.70;;;;;;609331;236;26795;-66
2022/05/18 12:30:45;;;;;;;2.72;2.55;;;25.90;45.90;;;;;;603235;236;26619;-65
2022/05/18 12:33:12;;;;;;;2.67;2.47;;;26.20;46.10;;;;;;596696;240;26927;-65
2022/05/18 12:35:49;;;;;;;2.72;2.20;;;26.80;44.30;;;;;;593477;242;26682;-66
2022/05/18 12:38:36;;;;;;;2.53;2.42;;;26.70;44.50;;;;;;580049;247;26692;-66
2022/05/18 12:41:09;;;;;;;2.22;2.12;;;27.10;44.60;;;;;;590106;243;26871;-66
2022/05/18 12:43:56;;;;;;;2.30;2.20;;;27.40;44.90;;;;;;595259;239;26911;-65
2022/05/18 12:46:27;;;;;;;2.55;2.35;;;27.90;42.50;;;;;;589993;243;26640;-65
2022/05/18 12:48:58;;;;;;;2.37;2.28;;;27.80;42.40;;;;;;590987;239;26608;-66
2022/05/18 12:51:44;;;;;;;2.42;2.30;;;28.00;42.10;;;;;;593969;238;26615;-65
2022/05/18 12:54:14;;;;;;;2.10;2.00;;;28.30;43.60;;;;;;593867;240;26886;-66
2022/05/18 12:56:50;;;;;;;2.10;2.00;;;28.80;42.80;;;;;;598688;239;26626;-66
2022/05/18 12:59:18;;;;;;;1.90;1.80;;;29.10;41.90;;;;;;596581;240;26887;-66
2022/05/18 13:01:45;;;;;;;2.22;2.12;;;29.50;41.10;;;;;;594827;239;26644;-66
2022/05/18 13:04:33;;;;;;;2.10;1.90;;;29.90;41.30;;;;;;593555;236;27415;-66
2022/05/18 13:07:01;;;;;;;2.00;1.90;;;30.60;42.30;;;;;;593786;239;26669;-68
2022/05/18 13:09:37;;;;;;;1.77;1.67;;;31.10;40.20;;;;;;581189;246;26877;-68
2022/05/18 13:12:11;;;;;;;2.30;2.10;;;31.40;38.90;;;;;;587595;244;26826;-68
2022/05/18 13:14:38;;;;;;;1.92;1.83;;;31.40;38.90;;;;;;601223;236;26623;-68